Time;durP1;ratioP1;P1;durP2;ratioP2;P2;SDS_P1;SDS_P2;PMS_P1;PMS_P2;Temp;Humidity;BMP_temperature;BMP_pressure;BME280_temperature;BME280_humidity;BME280_pressure;Samples;Min_cycle;Max_cycle;Signal;HPM_P1;HPM_P2
2023/09/30 00:02:53;;;;;;;7.63;4.43;;;;;;;22.03;53.04;99544.16;6899762;28;20282;-84
2023/09/30 00:06:15;;;;;;;7.47;4.60;;;;;;;22.09;53.32;99540.38;6897856;28;20205;-83
2023/09/30 00:09:37;;;;;;;10.23;5.13;;;;;;;22.21;52.11;99510.81;6896328;28;20229;-84
2023/09/30 00:13:00;;;;;;;7.07;4.50;;;;;;;22.38;52.25;99547.22;6892208;28;20221;-83
2023/09/30 00:16:21;;;;;;;7.97;4.67;;;;;;;22.32;52.42;99535.38;6894224;28;20205;-83
2023/09/30 00:19:44;;;;;;;7.10;4.20;;;;;;;22.47;52.40;99548.41;6894444;28;20202;-83
2023/09/30 00:23:06;;;;;;;9.10;4.30;;;;;;;22.37;52.90;99551.06;6893555;28;20567;-83
2023/09/30 00:26:27;;;;;;;5.30;3.53;;;;;;;22.37;52.63;99549.13;6894281;28;20710;-83
2023/09/30 00:29:51;;;;;;;7.87;4.20;;;;;;;22.11;52.98;99497.81;6894148;28;20358;-84
2023/09/30 00:33:12;;;;;;;5.80;3.53;;;;;;;22.64;52.71;99557.31;6893950;28;20321;-84
2023/09/30 00:36:34;;;;;;;5.33;3.67;;;;;;;22.16;52.78;99475.88;6894353;28;20233;-83
2023/09/30 00:39:56;;;;;;;6.97;3.47;;;;;;;22.64;52.22;99538.91;6894951;28;20257;-83
2023/09/30 00:43:21;;;;;;;5.10;3.10;;;;;;;22.70;52.77;99554.34;6906387;28;20235;-83
2023/09/30 00:46:44;;;;;;;5.07;3.50;;;;;;;22.38;53.32;99567.28;6894787;28;20241;-83
2023/09/30 00:50:08;;;;;;;6.33;3.57;;;;;;;22.05;54.38;99550.22;6894630;28;20274;-83
2023/09/30 00:53:29;;;;;;;5.83;2.63;;;;;;;22.44;53.60;99560.78;6894440;28;20343;-83
2023/09/30 00:56:51;;;;;;;5.30;3.20;;;;;;;22.00;54.17;99536.44;6895333;28;20771;-83
2023/09/30 01:00:14;;;;;;;4.70;3.00;;;;;;;22.40;53.70;99561.50;6894795;28;20306;-83
2023/09/30 01:03:37;;;;;;;4.33;2.80;;;;;;;22.41;53.41;99564.00;6894992;28;20230;-83
2023/09/30 01:06:59;;;;;;;4.77;2.90;;;;;;;22.15;54.20;99564.91;6892949;28;20250;-83
2023/09/30 01:10:20;;;;;;;3.10;2.70;;;;;;;21.72;55.30;99562.25;6897169;28;20198;-83
2023/09/30 01:13:43;;;;;;;3.43;2.70;;;;;;;22.10;54.37;99566.75;6894333;28;20234;-83
2023/09/30 01:17:08;;;;;;;6.33;2.70;;;;;;;21.99;54.16;99538.38;6892845;28;20578;-83
2023/09/30 01:20:31;;;;;;;4.63;2.70;;;;;;;22.05;53.76;99551.06;6896913;28;20186;-83
2023/09/30 01:23:54;;;;;;;4.20;2.87;;;;;;;22.21;53.82;99568.50;6897617;28;20222;-83
2023/09/30 01:27:18;;;;;;;6.30;2.73;;;;;;;22.15;53.65;99566.81;6900516;28;20235;-83
2023/09/30 01:30:39;;;;;;;5.13;3.20;;;;;;;21.48;55.28;99529.84;6897748;28;20251;-83
2023/09/30 01:34:01;;;;;;;5.17;2.80;;;;;;;21.81;55.10;99570.84;6903405;28;20266;-84
2023/09/30 01:37:22;;;;;;;6.10;3.47;;;;;;;21.68;54.66;99552.91;6899319;28;20307;-83
2023/09/30 01:40:46;;;;;;;4.13;2.60;;;;;;;21.94;54.20;99570.44;6899155;28;20238;-83
2023/09/30 01:44:09;;;;;;;4.00;2.67;;;;;;;21.40;55.21;99572.28;6898344;28;20229;-83
2023/09/30 01:47:31;;;;;;;5.27;3.30;;;;;;;21.40;56.03;99582.44;6898643;28;20209;-83
2023/09/30 01:50:52;;;;;;;3.73;2.80;;;;;;;21.39;55.55;99575.28;6898918;28;20220;-83
2023/09/30 01:54:14;;;;;;;4.10;2.50;;;;;;;21.19;56.16;99569.56;6897554;28;20322;-83
2023/09/30 01:57:37;;;;;;;3.87;2.40;;;;;;;20.99;56.92;99582.97;6898879;28;20841;-83
2023/09/30 02:01:03;;;;;;;4.13;3.00;;;;;;;21.18;56.45;99574.19;6898280;28;20598;-83
2023/09/30 02:04:24;;;;;;;3.20;2.47;;;;;;;21.20;56.28;99577.50;6898822;28;20227;-83
2023/09/30 02:07:46;;;;;;;5.63;2.73;;;;;;;21.27;56.02;99574.59;6896326;28;20228;-83
2023/09/30 02:11:07;;;;;;;4.60;3.00;;;;;;;21.19;55.92;99578.59;6897569;28;20212;-83
2023/09/30 02:14:30;;;;;;;3.67;2.80;;;;;;;21.30;54.56;99582.31;6898412;28;20387;-83
2023/09/30 02:17:52;;;;;;;4.27;2.93;;;;;;;20.73;55.91;99580.94;6899036;28;20708;-83
2023/09/30 02:21:13;;;;;;;3.73;3.03;;;;;;;20.67;55.41;99589.31;6898446;28;20289;-83
2023/09/30 02:24:35;;;;;;;4.23;3.10;;;;;;;19.98;55.94;99519.44;6898759;28;20224;-83
2023/09/30 02:27:57;;;;;;;8.90;3.67;;;;;;;20.21;56.45;99592.41;6900208;28;20208;-83
2023/09/30 02:31:19;;;;;;;4.73;3.43;;;;;;;20.58;55.62;99593.59;6921092;28;20208;-84
2023/09/30 02:34:42;;;;;;;5.67;3.73;;;;;;;19.80;58.11;99617.38;6923637;28;20208;-84
2023/09/30 02:38:04;;;;;;;6.87;3.40;;;;;;;19.73;58.02;99561.94;6909494;28;20224;-83
2023/09/30 02:41:25;;;;;;;6.33;3.50;;;;;;;20.04;58.90;99611.53;6895457;28;20239;-83
2023/09/30 02:44:47;;;;;;;5.47;3.50;;;;;;;20.27;57.64;99608.69;6896827;28;20280;-83
2023/09/30 02:48:10;;;;;;;8.13;3.70;;;;;;;19.89;58.54;99613.16;6895951;28;20236;-83
2023/09/30 02:51:31;;;;;;;9.67;3.67;;;;;;;20.00;58.56;99613.13;6895560;28;20292;-83
2023/09/30 02:54:53;;;;;;;4.60;2.83;;;;;;;19.93;58.08;99619.81;6895304;28;20263;-83
2023/09/30 02:58:14;;;;;;;5.17;3.47;;;;;;;19.60;59.37;99611.50;6894989;28;20236;-83
2023/09/30 03:01:36;;;;;;;6.40;3.40;;;;;;;19.45;60.18;99612.00;6897001;28;20291;-83
2023/09/30 03:04:59;;;;;;;6.80;3.60;;;;;;;19.97;59.26;99597.16;6900513;28;20231;-83
2023/09/30 03:08:22;;;;;;;5.87;3.20;;;;;;;20.05;58.57;99606.88;6900311;28;20207;-83
2023/09/30 03:11:44;;;;;;;8.30;3.50;;;;;;;20.26;58.24;99615.25;6900708;28;20200;-83
2023/09/30 03:15:06;;;;;;;5.37;3.40;;;;;;;20.44;57.46;99614.16;6898985;28;20216;-83
2023/09/30 03:18:28;;;;;;;5.33;3.00;;;;;;;20.63;56.37;99612.84;6901283;28;20716;-83
2023/09/30 03:21:51;;;;;;;5.97;3.20;;;;;;;20.72;56.46;99627.78;6900559;28;20295;-84
2023/09/30 03:25:12;;;;;;;4.00;2.80;;;;;;;20.60;56.43;99629.78;6900628;28;20224;-83
2023/09/30 03:28:34;;;;;;;4.90;3.60;;;;;;;20.53;56.73;99642.81;6899682;28;20228;-84
2023/09/30 03:31:56;;;;;;;4.63;3.07;;;;;;;20.61;56.62;99639.66;6897804;28;20204;-83
2023/09/30 03:35:18;;;;;;;5.53;3.77;;;;;;;19.70;59.56;99642.59;6899192;28;20644;-83
2023/09/30 03:38:41;;;;;;;5.07;3.50;;;;;;;19.73;60.08;99633.09;6897178;28;20319;-83
2023/09/30 03:42:03;;;;;;;5.07;3.37;;;;;;;19.95;60.42;99650.50;6896633;28;20886;-83
2023/09/30 03:45:25;;;;;;;8.10;3.57;;;;;;;20.30;59.55;99645.69;6896487;28;20311;-83
2023/09/30 03:48:47;;;;;;;9.77;3.20;;;;;;;20.42;58.73;99625.38;6897365;28;20283;-83
2023/09/30 03:52:08;;;;;;;6.50;4.23;;;;;;;19.86;59.30;99630.91;6896266;28;20316;-83
2023/09/30 03:55:31;;;;;;;4.67;3.33;;;;;;;20.26;58.94;99615.25;6895943;28;20269;-83
2023/09/30 03:58:53;;;;;;;4.83;4.07;;;;;;;19.95;59.70;99618.50;6894251;28;20501;-83
2023/09/30 04:02:15;;;;;;;4.93;3.47;;;;;;;20.31;59.16;99603.53;6896201;28;20205;-83
2023/09/30 04:05:37;;;;;;;6.13;3.83;;;;;;;20.22;58.58;99616.00;6897137;28;20592;-82
2023/09/30 04:08:59;;;;;;;6.20;3.33;;;;;;;19.91;59.21;99605.50;6901995;28;20651;-83
2023/09/30 04:12:23;;;;;;;5.43;3.50;;;;;;;20.14;58.69;99603.53;6893716;28;20248;-83
2023/09/30 04:15:46;;;;;;;6.60;3.33;;;;;;;19.84;59.04;99582.94;6867512;28;20221;-83
2023/09/30 04:19:09;;;;;;;4.90;3.20;;;;;;;19.89;59.44;99615.88;6880610;28;20233;-83
2023/09/30 04:22:32;;;;;;;5.17;3.60;;;;;;;19.55;60.14;99619.59;6891662;28;20209;-83
2023/09/30 04:25:54;;;;;;;6.03;4.03;;;;;;;19.55;59.64;99590.34;6890071;28;20220;-83
2023/09/30 04:29:17;;;;;;;5.83;3.83;;;;;;;19.75;59.55;99595.38;6891935;28;20212;-83
2023/09/30 04:32:39;;;;;;;5.10;3.90;;;;;;;20.08;58.31;99593.56;6890780;28;20240;-83
2023/09/30 04:36:01;;;;;;;6.03;4.20;;;;;;;19.28;60.52;99611.09;6892320;28;20219;-83
2023/09/30 04:39:22;;;;;;;5.27;4.20;;;;;;;19.59;60.84;99631.72;6892279;28;20244;-83
2023/09/30 04:42:45;;;;;;;5.63;4.47;;;;;;;19.66;60.48;99641.47;6891915;28;20310;-83
2023/09/30 04:46:08;;;;;;;6.87;4.97;;;;;;;19.88;59.72;99642.41;6893581;28;20628;-83
2023/09/30 04:49:30;;;;;;;5.47;4.27;;;;;;;19.55;59.81;99576.66;6892714;28;20205;-83
2023/09/30 04:52:52;;;;;;;5.07;3.90;;;;;;;20.28;57.60;99647.88;6891015;28;20251;-83
2023/09/30 04:56:13;;;;;;;6.93;3.97;;;;;;;19.96;58.21;99622.88;6892005;28;20326;-84
2023/09/30 04:59:35;;;;;;;4.87;3.47;;;;;;;20.17;58.15;99662.47;6892509;28;20286;-83
2023/09/30 05:02:59;;;;;;;6.57;4.87;;;;;;;19.87;58.73;99672.78;6892139;28;20302;-83
2023/09/30 05:06:21;;;;;;;6.63;4.07;;;;;;;19.57;59.83;99666.72;6892487;28;20208;-83
2023/09/30 05:09:42;;;;;;;9.13;4.80;;;;;;;19.69;60.47;99676.53;6892052;28;20718;-83
2023/09/30 05:13:04;;;;;;;7.30;4.30;;;;;;;20.06;59.41;99660.56;6890880;28;20302;-86
2023/09/30 05:16:27;;;;;;;6.00;4.17;;;;;;;20.11;59.28;99669.72;6879303;28;20283;-83
2023/09/30 05:19:49;;;;;;;6.57;4.10;;;;;;;20.06;59.44;99677.88;6891790;28;20282;-83
2023/09/30 05:23:12;;;;;;;5.10;3.77;;;;;;;19.95;59.32;99667.75;6891821;28;20830;-83
2023/09/30 05:26:34;;;;;;;5.97;4.20;;;;;;;19.71;60.09;99684.50;6892154;28;20225;-84
2023/09/30 05:29:55;;;;;;;4.80;4.33;;;;;;;19.92;60.14;99673.72;6892220;28;20266;-85
2023/09/30 05:33:17;;;;;;;5.97;4.37;;;;;;;20.01;59.97;99677.75;6889499;28;20299;-83
2023/09/30 05:36:40;;;;;;;7.07;4.40;;;;;;;19.54;60.24;99613.31;6885960;28;20289;-85
2023/09/30 05:40:04;;;;;;;5.50;4.27;;;;;;;19.97;60.03;99662.03;6891220;28;20322;-84
2023/09/30 05:43:27;;;;;;;6.33;4.37;;;;;;;20.27;59.37;99670.88;6890159;28;20232;-84
2023/09/30 05:46:48;;;;;;;7.40;4.60;;;;;;;20.29;58.40;99642.13;6891666;28;20208;-84
2023/09/30 05:50:14;;;;;;;6.10;3.83;;;;;;;20.34;58.14;99663.31;6890607;28;20275;-84
2023/09/30 05:53:38;;;;;;;9.60;4.13;;;;;;;20.29;58.82;99655.81;6891778;28;20701;-83
2023/09/30 05:57:00;;;;;;;7.37;3.93;;;;;;;20.19;58.22;99644.69;6890677;28;20262;-84
2023/09/30 06:00:22;;;;;;;6.37;4.47;;;;;;;20.20;59.38;99667.41;6892426;28;20242;-84
2023/09/30 06:03:46;;;;;;;5.70;4.67;;;;;;;20.44;59.48;99686.22;6880975;28;20756;-84
2023/09/30 06:07:09;;;;;;;4.77;3.80;;;;;;;20.74;58.06;99677.72;6890385;28;20812;-84
2023/09/30 06:10:32;;;;;;;5.43;3.80;;;;;;;20.47;57.97;99652.88;6892890;28;20208;-83
2023/09/30 06:13:54;;;;;;;6.33;3.50;;;;;;;20.47;58.49;99679.44;6896320;28;20244;-82
2023/09/30 06:17:16;;;;;;;6.97;4.30;;;;;;;20.46;59.19;99689.53;6897891;28;20255;-84
2023/09/30 06:20:38;;;;;;;7.10;4.07;;;;;;;20.46;59.56;99711.47;6888184;28;20229;-85
2023/09/30 06:23:59;;;;;;;5.47;4.43;;;;;;;20.46;59.99;99707.91;6896095;28;20231;-84
2023/09/30 06:27:22;;;;;;;6.57;4.90;;;;;;;20.33;59.92;99710.97;6898643;28;20206;-85
2023/09/30 06:30:45;;;;;;;6.60;4.63;;;;;;;20.39;59.51;99688.06;6897835;28;20239;-85
2023/09/30 06:34:07;;;;;;;8.33;4.57;;;;;;;20.46;59.24;99664.06;6897354;28;20691;-83
2023/09/30 06:37:29;;;;;;;6.77;4.40;;;;;;;21.09;58.12;99728.47;6900291;28;20256;-85
2023/09/30 06:40:51;;;;;;;9.53;6.87;;;;;;;21.09;57.77;99731.22;6894397;28;20282;-83
2023/09/30 06:44:14;;;;;;;9.67;7.17;;;;;;;21.39;57.20;99727.03;6896703;28;20232;-85
2023/09/30 06:47:36;;;;;;;6.07;4.33;;;;;;;21.06;57.27;99730.91;6900410;28;20235;-84
2023/09/30 06:50:58;;;;;;;6.97;3.93;;;;;;;21.05;58.38;99730.06;6899305;28;20206;-85
2023/09/30 06:54:20;;;;;;;9.03;4.40;;;;;;;21.20;58.66;99728.38;6900836;28;20251;-85
2023/09/30 06:57:42;;;;;;;5.50;4.17;;;;;;;21.63;56.94;99739.47;6909226;28;20201;-84
2023/09/30 07:01:04;;;;;;;10.10;4.70;;;;;;;21.50;56.72;99745.31;6906999;28;20257;-84
2023/09/30 07:04:26;;;;;;;5.73;4.77;;;;;;;21.13;58.10;99751.59;6906374;28;20224;-85
2023/09/30 07:07:47;;;;;;;7.23;4.33;;;;;;;21.47;57.14;99756.78;6901054;28;20211;-84
2023/09/30 07:11:10;;;;;;;5.03;4.33;;;;;;;21.35;58.14;99736.00;6898696;28;20431;-84
2023/09/30 07:14:32;;;;;;;5.70;4.10;;;;;;;21.69;56.47;99751.34;6906227;28;20224;-84
2023/09/30 07:17:55;;;;;;;7.10;4.90;;;;;;;21.88;55.34;99719.75;6901836;28;20669;-83
2023/09/30 07:21:18;;;;;;;8.13;4.80;;;;;;;22.01;54.95;99724.88;6905165;28;20225;-84
2023/09/30 07:24:39;;;;;;;4.80;4.27;;;;;;;22.21;55.16;99741.59;6906019;28;20221;-84
2023/09/30 07:28:01;;;;;;;5.43;4.40;;;;;;;22.01;55.29;99744.91;6903639;28;20215;-84
2023/09/30 07:31:23;;;;;;;6.30;4.53;;;;;;;22.33;54.75;99753.25;6903045;28;20199;-82
2023/09/30 07:34:46;;;;;;;8.50;4.87;;;;;;;21.77;55.70;99745.44;6922006;28;20231;-85
2023/09/30 07:38:08;;;;;;;8.20;4.50;;;;;;;22.36;54.81;99766.50;6915941;28;20232;-86
2023/09/30 07:41:36;;;;;;;9.53;5.03;;;;;;;23.18;51.16;99770.66;6906225;28;20263;-86
2023/09/30 07:44:58;;;;;;;6.10;4.57;;;;;;;22.96;52.11;99761.63;6893682;28;20738;-85
2023/09/30 07:48:19;;;;;;;7.83;5.07;;;;;;;22.98;52.07;99752.03;6893066;28;20288;-84
2023/09/30 07:51:42;;;;;;;9.53;5.20;;;;;;;23.07;51.51;99752.38;6891318;28;20218;-84
2023/09/30 07:55:04;;;;;;;10.10;4.60;;;;;;;23.03;51.62;99765.84;6891248;28;20261;-85
2023/09/30 07:58:26;;;;;;;8.93;4.70;;;;;;;22.71;52.34;99761.41;6892143;28;20250;-85
2023/09/30 08:01:49;;;;;;;9.83;4.73;;;;;;;22.60;51.21;99694.47;6900489;28;20221;-85
2023/09/30 08:05:11;;;;;;;10.07;4.57;;;;;;;23.11;51.42;99778.25;6888998;28;20461;-85
2023/09/30 08:08:34;;;;;;;8.97;4.50;;;;;;;23.15;51.04;99766.50;6893077;28;20405;-84
2023/09/30 08:11:56;;;;;;;7.67;4.57;;;;;;;23.15;51.56;99766.50;6893780;28;20211;-85
2023/09/30 08:15:18;;;;;;;8.13;4.77;;;;;;;22.98;51.42;99770.44;6912918;28;20220;-85
2023/09/30 08:18:39;;;;;;;7.10;5.00;;;;;;;23.12;51.51;99741.44;6892742;28;20252;-85
2023/09/30 08:22:01;;;;;;;7.93;4.50;;;;;;;24.16;49.06;99743.16;6877224;28;20666;-85
2023/09/30 08:25:24;;;;;;;5.80;3.97;;;;;;;25.01;46.88;99755.22;6890469;28;20367;-90
2023/09/30 08:28:45;;;;;;;7.97;4.40;;;;;;;25.27;44.91;99754.16;6889474;28;20608;-87
2023/09/30 08:32:07;;;;;;;8.87;4.67;;;;;;;25.04;46.01;99734.53;6886818;28;20262;-87
2023/09/30 08:35:29;;;;;;;9.93;4.90;;;;;;;24.16;47.29;99666.84;6888730;28;20321;-88
2023/09/30 08:38:50;;;;;;;5.83;4.60;;;;;;;25.00;46.57;99758.25;6888568;28;20282;-87
2023/09/30 08:42:13;;;;;;;7.13;4.43;;;;;;;24.84;45.53;99751.09;6888369;28;20210;-87
2023/09/30 08:45:39;;;;;;;11.93;4.77;;;;;;;24.86;46.73;99749.72;6888729;28;20217;-86
2023/09/30 08:49:03;;;;;;;5.23;4.23;;;;;;;25.40;45.50;99745.31;6880243;28;20215;-87
2023/09/30 08:52:24;;;;;;;9.40;4.63;;;;;;;25.33;44.50;99710.81;6887952;28;20197;-86
2023/09/30 08:55:47;;;;;;;8.70;4.23;;;;;;;26.10;42.56;99755.34;6890430;28;20230;-85
2023/09/30 08:59:11;;;;;;;6.83;4.53;;;;;;;26.40;41.59;99744.16;6897225;28;20711;-86
2023/09/30 09:02:34;;;;;;;7.47;5.03;;;;;;;26.03;42.62;99741.03;6897142;28;20268;-86
2023/09/30 09:05:57;;;;;;;7.27;4.23;;;;;;;25.50;44.61;99748.06;6875851;28;20302;-86
2023/09/30 09:09:22;;;;;;;6.90;4.90;;;;;;;25.73;43.60;99743.84;6926368;28;20286;-86
2023/09/30 09:12:44;;;;;;;8.30;4.70;;;;;;;26.21;42.20;99730.16;6903632;28;20209;-86
2023/09/30 09:16:10;;;;;;;5.43;4.17;;;;;;;26.73;40.06;99737.91;6901102;28;20214;-86
2023/09/30 09:19:31;;;;;;;7.03;4.20;;;;;;;26.90;38.74;99744.69;6900737;28;20311;-86
2023/09/30 09:22:55;;;;;;;6.77;4.33;;;;;;;26.22;41.13;99764.16;6898661;28;20221;-85
2023/09/30 09:26:25;;;;;;;6.83;4.63;;;;;;;26.45;39.78;99769.03;6902791;28;20584;-82
2023/09/30 09:29:46;;;;;;;5.43;3.83;;;;;;;26.52;39.43;99697.59;6907734;28;20194;-83
2023/09/30 09:33:09;;;;;;;7.63;5.07;;;;;;;25.28;41.56;99753.06;6904496;28;20259;-83
2023/09/30 09:36:40;;;;;;;6.63;4.47;;;;;;;24.47;43.84;99740.22;6895426;28;20576;-83
2023/09/30 09:40:03;;;;;;;6.00;4.20;;;;;;;25.93;42.06;99744.66;6894538;28;20583;-83
2023/09/30 09:43:25;;;;;;;5.57;3.60;;;;;;;26.98;38.77;99719.16;6895891;28;20727;-87
2023/09/30 09:46:48;;;;;;;5.43;3.63;;;;;;;26.50;38.46;99725.59;6896315;28;20278;-82
2023/09/30 09:50:13;;;;;;;4.57;3.20;;;;;;;26.65;38.99;99738.53;6896009;28;20663;-84
2023/09/30 09:53:38;;;;;;;6.73;4.20;;;;;;;27.09;37.92;99734.59;6899124;28;20229;-83
2023/09/30 09:57:01;;;;;;;5.07;3.63;;;;;;;27.48;37.36;99724.25;6900831;28;20694;-85
2023/09/30 10:00:25;;;;;;;6.03;3.97;;;;;;;25.89;39.89;99690.19;6896505;28;20295;-87
2023/09/30 10:03:46;;;;;;;6.37;3.97;;;;;;;25.06;40.59;99675.19;6893682;28;20308;-84
2023/09/30 10:07:11;;;;;;;5.77;3.53;;;;;;;26.79;37.96;99709.88;6893743;28;20647;-86
2023/09/30 10:10:36;;;;;;;5.83;3.80;;;;;;;26.52;38.99;99728.03;6885943;28;20216;-85
2023/09/30 10:14:02;;;;;;;5.70;3.87;;;;;;;25.92;39.18;99720.06;6879149;28;20231;-85
2023/09/30 10:17:57;;;;;;;7.70;4.43;;;;;;;26.66;37.81;99718.03;6892340;28;20250;-84
2023/09/30 10:21:19;;;;;;;6.13;4.13;;;;;;;26.33;38.76;99730.66;6891424;28;20223;-85
2023/09/30 10:24:42;;;;;;;5.40;3.87;;;;;;;26.21;38.80;99716.34;6892180;28;20235;-85
2023/09/30 10:28:34;;;;;;;8.57;4.30;;;;;;;25.61;39.75;99697.19;6892799;28;20239;-85
2023/09/30 10:31:55;;;;;;;10.33;4.50;;;;;;;26.82;37.70;99692.72;6892902;28;20231;-85
2023/09/30 10:35:17;;;;;;;6.60;4.00;;;;;;;27.55;36.62;99705.34;6893212;28;20355;-85
2023/09/30 10:38:41;;;;;;;6.90;4.37;;;;;;;26.86;37.27;99713.19;6892959;28;20732;-85
2023/09/30 10:42:04;;;;;;;6.37;4.43;;;;;;;27.21;36.33;99701.00;6892139;28;20231;-84
2023/09/30 10:45:46;;;;;;;9.47;4.60;;;;;;;25.99;37.71;99702.06;6891003;28;20260;-86
2023/09/30 10:49:31;;;;;;;7.00;4.33;;;;;;;26.13;38.32;99707.81;6892061;28;20205;-87
2023/09/30 10:52:53;;;;;;;6.03;4.27;;;;;;;26.65;37.27;99708.09;6889658;28;20233;-87
2023/09/30 10:56:18;;;;;;;8.47;4.30;;;;;;;25.88;37.74;99633.25;6892380;28;20220;-85
2023/09/30 10:59:41;;;;;;;6.20;3.80;;;;;;;27.79;36.28;99666.56;6892300;28;20318;-87
2023/09/30 11:03:03;;;;;;;6.23;4.30;;;;;;;28.68;34.73;99661.72;6892600;28;20294;-84
2023/09/30 11:06:25;;;;;;;6.27;4.57;;;;;;;28.89;33.53;99667.75;6891592;28;20221;-84
2023/09/30 11:09:47;;;;;;;6.47;4.53;;;;;;;28.30;33.18;99657.25;6892948;28;20201;-83
2023/09/30 11:13:08;;;;;;;7.77;4.83;;;;;;;28.68;32.56;99661.72;6891074;28;20338;-86
2023/09/30 11:16:31;;;;;;;7.87;5.27;;;;;;;27.43;34.08;99649.50;6890204;28;20265;-85
2023/09/30 11:19:54;;;;;;;9.63;5.50;;;;;;;25.70;36.61;99642.19;6872012;28;20327;-85
2023/09/30 11:23:16;;;;;;;10.10;4.87;;;;;;;25.93;36.64;99666.44;6891766;28;20244;-86
2023/09/30 11:26:41;;;;;;;8.50;4.73;;;;;;;26.73;33.99;99654.88;6894718;28;20258;-84
2023/09/30 11:30:03;;;;;;;8.30;5.50;;;;;;;25.61;34.85;99657.72;6897514;28;20228;-85
2023/09/30 11:33:26;;;;;;;8.47;6.10;;;;;;;26.86;31.82;99652.28;6891321;28;20228;-84
2023/09/30 11:36:49;;;;;;;8.20;5.03;;;;;;;27.25;33.43;99652.22;6892973;28;20611;-84
2023/09/30 11:40:13;;;;;;;7.03;4.80;;;;;;;27.51;33.59;99650.81;6884855;28;20771;-84
2023/09/30 11:43:35;;;;;;;9.17;5.40;;;;;;;28.02;32.85;99651.84;6892041;28;20243;-84
2023/09/30 11:47:00;;;;;;;7.97;5.00;;;;;;;27.87;32.57;99655.66;6895524;28;20602;-84
2023/09/30 11:50:24;;;;;;;7.00;4.87;;;;;;;27.98;31.88;99648.88;6894387;28;20204;-84
2023/09/30 11:53:46;;;;;;;8.50;5.33;;;;;;;28.63;31.51;99649.84;6893971;28;20232;-83
2023/09/30 11:57:09;;;;;;;8.87;5.20;;;;;;;28.30;30.88;99653.69;6896168;28;20291;-84
2023/09/30 12:00:31;;;;;;;8.17;5.30;;;;;;;28.45;31.08;99650.69;6895367;28;20223;-84
2023/09/30 12:03:54;;;;;;;10.60;5.60;;;;;;;27.21;32.19;99643.66;6894844;28;20319;-83
2023/09/30 12:07:17;;;;;;;9.47;5.83;;;;;;;28.50;30.33;99640.38;6897271;28;20211;-84
2023/09/30 12:10:40;;;;;;;10.47;5.67;;;;;;;28.13;31.73;99656.16;6895493;28;20217;-85
2023/09/30 12:14:02;;;;;;;8.17;5.40;;;;;;;26.23;34.07;99666.25;6889450;28;20229;-83
2023/09/30 12:17:23;;;;;;;8.93;5.77;;;;;;;26.26;33.80;99593.81;6894899;28;20268;-83
2023/09/30 12:20:45;;;;;;;9.07;5.83;;;;;;;27.88;32.11;99662.00;6897705;28;20751;-84
2023/09/30 12:24:09;;;;;;;9.23;5.57;;;;;;;28.00;32.23;99649.38;6899830;28;20223;-83
2023/09/30 12:27:30;;;;;;;10.17;5.27;;;;;;;27.57;33.06;99647.69;6900319;28;20208;-84
2023/09/30 12:30:52;;;;;;;8.00;4.97;;;;;;;27.41;33.66;99650.91;6906733;28;20247;-85
2023/09/30 12:34:14;;;;;;;7.10;5.13;;;;;;;27.12;33.74;99639.84;6915020;28;20276;-86
2023/09/30 12:37:36;;;;;;;9.10;5.67;;;;;;;27.48;33.38;99632.81;6912589;28;20236;-82
2023/09/30 12:40:58;;;;;;;10.13;6.07;;;;;;;27.51;31.71;99618.41;6895451;28;20229;-84
2023/09/30 12:44:20;;;;;;;7.97;5.50;;;;;;;28.37;30.80;99643.88;6890046;28;20234;-85
2023/09/30 12:47:42;;;;;;;10.17;5.30;;;;;;;27.60;32.24;99638.78;6890253;28;20724;-86
2023/09/30 12:51:06;;;;;;;7.63;4.70;;;;;;;27.74;31.51;99630.56;6890695;28;20341;-84
2023/09/30 12:54:27;;;;;;;8.87;4.87;;;;;;;27.93;31.66;99634.22;6891707;28;20224;-83
2023/09/30 12:57:50;;;;;;;9.70;5.53;;;;;;;27.76;32.00;99631.09;6891044;28;20225;-83
2023/09/30 13:01:12;;;;;;;9.17;5.27;;;;;;;26.99;31.84;99620.31;6891072;28;20672;-83
2023/09/30 13:04:34;;;;;;;8.53;5.77;;;;;;;26.72;32.83;99634.69;6892672;28;20248;-83
2023/09/30 13:07:55;;;;;;;9.97;5.70;;;;;;;27.15;32.10;99635.66;6892873;28;20239;-83
2023/09/30 13:11:17;;;;;;;9.67;5.60;;;;;;;27.37;32.50;99639.59;6891748;28;20235;-83
2023/09/30 13:14:40;;;;;;;8.40;5.43;;;;;;;28.23;30.98;99622.69;6892789;28;20216;-83
2023/09/30 13:18:03;;;;;;;9.13;5.30;;;;;;;27.86;32.26;99628.22;6898747;28;20204;-84
2023/09/30 13:21:25;;;;;;;7.20;4.90;;;;;;;28.40;30.67;99609.16;6897938;28;20723;-83
2023/09/30 13:24:47;;;;;;;9.50;5.50;;;;;;;28.12;31.37;99599.00;6898205;28;20292;-84
2023/09/30 13:28:08;;;;;;;8.60;5.20;;;;;;;27.74;31.57;99598.16;6897625;28;20287;-83
2023/09/30 13:31:31;;;;;;;9.67;5.60;;;;;;;27.35;31.97;99542.13;6898159;28;20252;-84
2023/09/30 13:34:54;;;;;;;9.27;6.13;;;;;;;27.61;32.16;99568.38;6897054;28;20255;-84
2023/09/30 13:38:16;;;;;;;7.67;5.00;;;;;;;27.40;32.57;99583.63;6898741;28;20200;-82
2023/09/30 13:41:38;;;;;;;9.67;5.83;;;;;;;27.37;33.11;99591.69;6894906;28;20298;-83
2023/09/30 13:45:00;;;;;;;7.20;5.47;;;;;;;27.00;32.91;99549.97;6895042;28;20256;-83
2023/09/30 13:48:23;;;;;;;8.63;5.70;;;;;;;26.35;34.37;99597.59;6892827;28;20649;-83
2023/09/30 13:51:44;;;;;;;11.07;5.83;;;;;;;27.30;32.93;99589.28;6891582;28;20584;-82
2023/09/30 13:55:08;;;;;;;10.17;5.40;;;;;;;26.71;33.76;99546.44;6893239;28;20270;-84
2023/09/30 13:58:29;;;;;;;11.33;5.27;;;;;;;26.66;34.17;99602.63;6892677;28;20303;-83
2023/09/30 14:01:51;;;;;;;9.30;6.47;;;;;;;26.91;34.03;99591.34;6892531;28;20717;-84
2023/09/30 14:05:14;;;;;;;10.57;5.80;;;;;;;27.31;34.05;99596.44;6892896;28;20600;-85
2023/09/30 14:08:35;;;;;;;7.67;5.33;;;;;;;27.20;33.07;99564.44;6892206;28;20320;-84
2023/09/30 14:11:58;;;;;;;7.63;5.50;;;;;;;25.44;35.93;99546.75;6890348;28;20244;-85
2023/09/30 14:15:20;;;;;;;9.67;5.60;;;;;;;26.22;34.98;99585.28;6891829;28;20573;-85
2023/09/30 14:18:42;;;;;;;9.57;5.27;;;;;;;26.37;34.97;99582.38;6894090;28;20235;-84
2023/09/30 14:22:05;;;;;;;11.40;5.17;;;;;;;26.49;34.42;99588.34;6893224;28;20251;-84
2023/09/30 14:25:27;;;;;;;9.93;5.13;;;;;;;26.20;34.98;99543.25;6894538;28;20316;-84
2023/09/30 14:28:48;;;;;;;7.20;5.27;;;;;;;26.12;35.77;99606.63;6892285;28;20211;-85
2023/09/30 14:32:10;;;;;;;8.13;5.03;;;;;;;26.39;35.61;99582.09;6891459;28;20283;-86
2023/09/30 14:35:33;;;;;;;8.23;5.30;;;;;;;26.39;35.34;99573.78;6891055;28;20259;-85
2023/09/30 14:38:56;;;;;;;7.03;5.07;;;;;;;26.63;35.12;99575.56;6890026;28;20208;-86
2023/09/30 14:42:18;;;;;;;9.80;5.10;;;;;;;25.99;35.24;99529.84;6890707;28;20272;-86
2023/09/30 14:45:40;;;;;;;8.33;5.13;;;;;;;26.43;35.37;99586.75;6886237;28;20305;-86
2023/09/30 14:49:02;;;;;;;7.90;5.10;;;;;;;25.53;36.14;99548.63;6892039;28;20264;-86
2023/09/30 14:52:25;;;;;;;8.63;5.83;;;;;;;25.74;36.10;99571.44;6906361;28;20220;-86
2023/09/30 14:55:47;;;;;;;9.07;5.10;;;;;;;25.55;36.01;99581.50;6908639;28;20220;-86
2023/09/30 14:59:09;;;;;;;10.13;5.80;;;;;;;25.75;36.15;99592.44;6891915;28;20310;-86
2023/09/30 15:02:30;;;;;;;8.20;5.17;;;;;;;25.99;35.65;99594.28;6880839;28;20364;-86
2023/09/30 15:05:59;;;;;;;9.77;5.13;;;;;;;25.61;36.38;99577.59;6883456;28;20662;-86
2023/09/30 15:09:20;;;;;;;9.37;5.30;;;;;;;25.92;36.02;99570.81;6891746;28;20280;-86
2023/09/30 15:12:43;;;;;;;8.10;5.27;;;;;;;25.96;36.50;99591.25;6891049;28;20208;-83
2023/09/30 15:16:04;;;;;;;8.13;4.90;;;;;;;26.05;36.10;99592.28;6891776;28;20206;-88
2023/09/30 15:19:26;;;;;;;6.23;4.80;;;;;;;25.87;35.66;99598.44;6892760;28;20239;-85
2023/09/30 15:22:51;;;;;;;9.03;5.03;;;;;;;26.19;35.86;99579.50;6891519;28;20377;-84
2023/09/30 15:26:12;;;;;;;8.83;5.27;;;;;;;26.24;35.03;99599.63;6889798;28;20239;-87
2023/09/30 15:29:35;;;;;;;7.57;4.80;;;;;;;25.67;36.17;99591.09;6890222;28;20243;-87
2023/09/30 15:32:57;;;;;;;10.50;5.67;;;;;;;25.12;36.16;99532.50;6878760;28;20259;-87
2023/09/30 15:36:20;;;;;;;8.47;4.77;;;;;;;25.32;36.01;99511.16;6875761;28;20229;-88
2023/09/30 15:39:42;;;;;;;8.50;5.20;;;;;;;25.82;36.26;99579.97;6890484;28;20226;-86
2023/09/30 15:43:04;;;;;;;9.80;5.60;;;;;;;25.51;36.95;99588.69;6889833;28;20226;-86
2023/09/30 15:46:27;;;;;;;9.90;5.70;;;;;;;25.00;36.56;99479.53;6890090;28;20587;-86
2023/09/30 15:49:48;;;;;;;10.93;5.67;;;;;;;25.65;36.57;99579.50;6889853;28;20204;-87
2023/09/30 15:53:10;;;;;;;10.83;5.17;;;;;;;25.43;36.74;99590.09;6889725;28;20364;-87